LIRZ/PEG METAR and TAF weather

Enter ICAO airport designator
Station Type Date Time Source
LIRZ METAR 2021/03/02 16:20 UTC NOAA

LIRZ 021620Z AUTO 03010KT //// // NCD 15/03 Q1030


Station Type Date Time Source
LIRZ Decoded METAR 2021/03/02 16:20 UTC NOAA

Perugia, Italy (LIRZ) 43-05N 012-30E 205M
Mar 02, 2021 - 11:20 AM EST / 2021.03.02 1620 UTC
Wind: from the NNE (030 degrees) at 12 MPH (10 KT):0
Temperature: 59 F (15 C)
Dew Point: 37 F (3 C)
Relative Humidity: 44%
Pressure (altimeter): 30.42 in. Hg (1030 hPa)
ob: LIRZ 021620Z AUTO 03010KT //// // NCD 15/03 Q1030
cycle: 16

Station Type Date Time Source
LIRZ TAF 2021/03/02 12:21 UTC NOAA

TAF LIRZ 021100Z 0212/0312 02007KT CAVOK

Example: see airport list